sensor_id;sensor_type;location;lat;lon;timestamp;pressure;altitude;pressure_sealevel;temperature;humidity
80945;BME280;70400;50.934;11.590;2023-07-09T00:00:21;100374.31;;;19.79;54.31
80945;BME280;70400;50.934;11.590;2023-07-09T00:01:17;100375.28;;;19.71;54.35
80945;BME280;70400;50.934;11.590;2023-07-09T00:02:11;100370.00;;;19.78;54.38
80945;BME280;70400;50.934;11.590;2023-07-09T00:03:02;100378.44;;;19.82;54.25
80945;BME280;70400;50.934;11.590;2023-07-09T00:03:53;100379.16;;;19.69;54.10
80945;BME280;70400;50.934;11.590;2023-07-09T00:04:44;100373.50;;;19.57;55.12
80945;BME280;70400;50.934;11.590;2023-07-09T00:05:35;100379.66;;;19.58;55.28
80945;BME280;70400;50.934;11.590;2023-07-09T00:06:26;100376.75;;;19.52;55.51
80945;BME280;70400;50.934;11.590;2023-07-09T00:07:20;100374.25;;;19.51;55.90
80945;BME280;70400;50.934;11.590;2023-07-09T00:08:24;100372.06;;;19.61;55.22
80945;BME280;70400;50.934;11.590;2023-07-09T00:09:19;100378.19;;;19.55;55.41
80945;BME280;70400;50.934;11.590;2023-07-09T00:10:16;100378.97;;;19.49;55.63
80945;BME280;70400;50.934;11.590;2023-07-09T00:11:07;100370.75;;;19.50;55.58
80945;BME280;70400;50.934;11.590;2023-07-09T00:11:58;100379.22;;;19.54;55.27
80945;BME280;70400;50.934;11.590;2023-07-09T00:12:49;100379.94;;;19.41;56.03
80945;BME280;70400;50.934;11.590;2023-07-09T00:13:40;100379.69;;;19.36;55.68
80945;BME280;70400;50.934;11.590;2023-07-09T00:14:31;100381.00;;;19.47;56.09
80945;BME280;70400;50.934;11.590;2023-07-09T00:15:22;100374.59;;;19.41;55.69
80945;BME280;70400;50.934;11.590;2023-07-09T00:16:23;100379.47;;;19.38;56.20
80945;BME280;70400;50.934;11.590;2023-07-09T00:17:21;100376.06;;;19.44;56.10
80945;BME280;70400;50.934;11.590;2023-07-09T00:18:14;100376.69;;;19.24;56.48
80945;BME280;70400;50.934;11.590;2023-07-09T00:19:15;100379.28;;;19.18;56.83
80945;BME280;70400;50.934;11.590;2023-07-09T00:20:14;100377.41;;;19.18;56.36
80945;BME280;70400;50.934;11.590;2023-07-09T00:21:05;100376.53;;;19.11;56.78
80945;BME280;70400;50.934;11.590;2023-07-09T00:21:56;100375.25;;;19.07;57.44
80945;BME280;70400;50.934;11.590;2023-07-09T00:22:48;100377.75;;;19.08;57.22
80945;BME280;70400;50.934;11.590;2023-07-09T00:23:43;100374.44;;;19.06;56.98
80945;BME280;70400;50.934;11.590;2023-07-09T00:24:33;100369.91;;;19.07;57.09
80945;BME280;70400;50.934;11.590;2023-07-09T00:25:25;100379.31;;;19.03;57.51
80945;BME280;70400;50.934;11.590;2023-07-09T00:26:17;100373.53;;;18.99;57.42
80945;BME280;70400;50.934;11.590;2023-07-09T00:27:12;100373.91;;;18.96;57.59
80945;BME280;70400;50.934;11.590;2023-07-09T00:28:03;100378.75;;;19.07;57.72
80945;BME280;70400;50.934;11.590;2023-07-09T00:28:54;100377.81;;;19.15;57.10
80945;BME280;70400;50.934;11.590;2023-07-09T00:29:48;100377.50;;;19.03;56.85
80945;BME280;70400;50.934;11.590;2023-07-09T00:30:39;100377.94;;;19.07;57.46
80945;BME280;70400;50.934;11.590;2023-07-09T00:31:31;100375.81;;;19.02;56.95
80945;BME280;70400;50.934;11.590;2023-07-09T00:32:22;100373.09;;;18.96;56.94
80945;BME280;70400;50.934;11.590;2023-07-09T00:33:14;100377.16;;;18.92;56.96
80945;BME280;70400;50.934;11.590;2023-07-09T00:34:10;100374.28;;;18.93;57.91
80945;BME280;70400;50.934;11.590;2023-07-09T00:35:04;100374.16;;;19.01;57.32
80945;BME280;70400;50.934;11.590;2023-07-09T00:35:55;100372.22;;;18.95;57.57
80945;BME280;70400;50.934;11.590;2023-07-09T00:36:46;100372.34;;;18.87;57.51
80945;BME280;70400;50.934;11.590;2023-07-09T00:37:37;100371.09;;;18.83;57.31
80945;BME280;70400;50.934;11.590;2023-07-09T00:38:28;100373.44;;;18.93;57.95
80945;BME280;70400;50.934;11.590;2023-07-09T00:39:20;100378.22;;;18.97;57.60
80945;BME280;70400;50.934;11.590;2023-07-09T00:40:20;100381.66;;;18.91;57.72
80945;BME280;70400;50.934;11.590;2023-07-09T00:41:15;100373.56;;;18.84;57.76
80945;BME280;70400;50.934;11.590;2023-07-09T00:42:17;100376.31;;;18.91;57.93
80945;BME280;70400;50.934;11.590;2023-07-09T00:43:15;100377.63;;;18.80;57.61
80945;BME280;70400;50.934;11.590;2023-07-09T00:45:22;100386.66;;;18.79;57.65
80945;BME280;70400;50.934;11.590;2023-07-09T00:47:35;100375.88;;;18.73;57.93
80945;BME280;70400;50.934;11.590;2023-07-09T00:48:32;100375.59;;;18.82;57.83
80945;BME280;70400;50.934;11.590;2023-07-09T00:49:38;100382.13;;;18.80;57.80
80945;BME280;70400;50.934;11.590;2023-07-09T00:50:44;100379.38;;;18.73;58.14
80945;BME280;70400;50.934;11.590;2023-07-09T00:51:40;100381.50;;;18.78;57.84
80945;BME280;70400;50.934;11.590;2023-07-09T00:52:37;100377.16;;;18.77;58.63
80945;BME280;70400;50.934;11.590;2023-07-09T00:53:31;100376.88;;;18.86;58.25
80945;BME280;70400;50.934;11.590;2023-07-09T00:54:35;100378.53;;;18.87;58.24
80945;BME280;70400;50.934;11.590;2023-07-09T00:55:30;100376.88;;;18.86;58.23
80945;BME280;70400;50.934;11.590;2023-07-09T00:56:36;100376.78;;;18.80;58.31
80945;BME280;70400;50.934;11.590;2023-07-09T00:57:29;100374.31;;;18.78;58.76
80945;BME280;70400;50.934;11.590;2023-07-09T00:58:21;100380.09;;;18.82;58.39
80945;BME280;70400;50.934;11.590;2023-07-09T00:59:15;100374.03;;;18.88;58.60
80945;BME280;70400;50.934;11.590;2023-07-09T01:00:10;100374.97;;;18.80;58.24
80945;BME280;70400;50.934;11.590;2023-07-09T01:01:06;100385.06;;;18.85;58.67
80945;BME280;70400;50.934;11.590;2023-07-09T01:02:01;100382.88;;;18.89;58.75
80945;BME280;70400;50.934;11.590;2023-07-09T01:02:52;100385.91;;;18.85;58.73
80945;BME280;70400;50.934;11.590;2023-07-09T01:03:49;100386.19;;;18.91;59.09
80945;BME280;70400;50.934;11.590;2023-07-09T01:04:41;100384.50;;;18.90;58.47
80945;BME280;70400;50.934;11.590;2023-07-09T01:05:33;100381.19;;;18.87;59.04
80945;BME280;70400;50.934;11.590;2023-07-09T01:06:31;100382.97;;;18.80;59.49
80945;BME280;70400;50.934;11.590;2023-07-09T01:07:27;100380.19;;;18.74;59.84
80945;BME280;70400;50.934;11.590;2023-07-09T01:08:19;100386.66;;;18.79;59.14
80945;BME280;70400;50.934;11.590;2023-07-09T01:09:10;100380.88;;;18.76;59.95
80945;BME280;70400;50.934;11.590;2023-07-09T01:10:03;100387.16;;;18.75;59.39
80945;BME280;70400;50.934;11.590;2023-07-09T01:10:54;100375.66;;;18.74;59.75
80945;BME280;70400;50.934;11.590;2023-07-09T01:11:47;100383.03;;;18.72;59.37
80945;BME280;70400;50.934;11.590;2023-07-09T01:12:40;100384.19;;;18.78;59.74
80945;BME280;70400;50.934;11.590;2023-07-09T01:13:31;100379.28;;;18.81;59.36
80945;BME280;70400;50.934;11.590;2023-07-09T01:14:26;100377.50;;;18.74;59.23
80945;BME280;70400;50.934;11.590;2023-07-09T01:15:17;100383.34;;;18.77;59.60
80945;BME280;70400;50.934;11.590;2023-07-09T01:16:08;100383.16;;;18.79;59.31
80945;BME280;70400;50.934;11.590;2023-07-09T01:17:02;100385.91;;;18.85;59.41
80945;BME280;70400;50.934;11.590;2023-07-09T01:17:55;100382.13;;;18.80;58.87
80945;BME280;70400;50.934;11.590;2023-07-09T01:18:46;100384.63;;;18.81;59.52
80945;BME280;70400;50.934;11.590;2023-07-09T01:19:40;100387.19;;;18.90;58.86
80945;BME280;70400;50.934;11.590;2023-07-09T01:20:34;100389.31;;;18.79;59.00
80945;BME280;70400;50.934;11.590;2023-07-09T01:21:26;100383.69;;;18.74;59.42
80945;BME280;70400;50.934;11.590;2023-07-09T01:22:20;100385.09;;;18.70;59.03
80945;BME280;70400;50.934;11.590;2023-07-09T01:23:11;100384.72;;;18.73;59.30
80945;BME280;70400;50.934;11.590;2023-07-09T01:24:45;100392.25;;;18.70;59.54
80945;BME280;70400;50.934;11.590;2023-07-09T01:25:27;100384.81;;;18.65;59.42
80945;BME280;70400;50.934;11.590;2023-07-09T01:26:24;100385.69;;;18.72;59.19
80945;BME280;70400;50.934;11.590;2023-07-09T01:27:17;100393.09;;;18.70;59.75
80945;BME280;70400;50.934;11.590;2023-07-09T01:28:09;100398.63;;;18.69;59.31
80945;BME280;70400;50.934;11.590;2023-07-09T01:29:00;100388.38;;;18.72;59.42
80945;BME280;70400;50.934;11.590;2023-07-09T01:29:52;100388.97;;;18.68;59.12
80945;BME280;70400;50.934;11.590;2023-07-09T01:30:43;100393.56;;;18.59;59.48
80945;BME280;70400;50.934;11.590;2023-07-09T01:31:35;100391.16;;;18.64;59.57
80945;BME280;70400;50.934;11.590;2023-07-09T01:32:27;100394.84;;;18.63;59.73
80945;BME280;70400;50.934;11.590;2023-07-09T01:33:19;100398.63;;;18.69;59.55
80945;BME280;70400;50.934;11.590;2023-07-09T01:34:10;100395.50;;;18.65;59.30
80945;BME280;70400;50.934;11.590;2023-07-09T01:35:03;100397.81;;;18.53;59.24
80945;BME280;70400;50.934;11.590;2023-07-09T01:35:57;100390.22;;;18.57;59.81
80945;BME280;70400;50.934;11.590;2023-07-09T01:36:51;100393.75;;;18.57;59.36
80945;BME280;70400;50.934;11.590;2023-07-09T01:37:45;100394.84;;;18.63;59.40
80945;BME280;70400;50.934;11.590;2023-07-09T01:38:37;100394.31;;;18.68;59.25
80945;BME280;70400;50.934;11.590;2023-07-09T01:39:28;100393.19;;;18.62;59.17
80945;BME280;70400;50.934;11.590;2023-07-09T01:40:20;100402.31;;;18.68;59.00
80945;BME280;70400;50.934;11.590;2023-07-09T01:41:23;100395.84;;;18.62;58.89
80945;BME280;70400;50.934;11.590;2023-07-09T01:42:15;100393.38;;;18.60;59.49
80945;BME280;70400;50.934;11.590;2023-07-09T01:43:07;100399.00;;;18.51;59.61
80945;BME280;70400;50.934;11.590;2023-07-09T01:43:58;100399.00;;;18.51;59.30
80945;BME280;70400;50.934;11.590;2023-07-09T01:44:50;100396.50;;;18.49;59.49
80945;BME280;70400;50.934;11.590;2023-07-09T01:45:41;100393.66;;;18.51;59.83
80945;BME280;70400;50.934;11.590;2023-07-09T01:46:32;100396.97;;;18.53;59.61
80945;BME280;70400;50.934;11.590;2023-07-09T01:47:23;100396.06;;;18.46;59.74
80945;BME280;70400;50.934;11.590;2023-07-09T01:48:14;100395.94;;;18.39;59.69
80945;BME280;70400;50.934;11.590;2023-07-09T01:49:06;100396.44;;;18.42;59.70
80945;BME280;70400;50.934;11.590;2023-07-09T01:49:58;100395.03;;;18.47;59.98
80945;BME280;70400;50.934;11.590;2023-07-09T01:50:52;100399.81;;;18.36;60.31
80945;BME280;70400;50.934;11.590;2023-07-09T01:51:44;100397.41;;;18.27;60.18
80945;BME280;70400;50.934;11.590;2023-07-09T01:52:40;100398.06;;;18.29;60.06
80945;BME280;70400;50.934;11.590;2023-07-09T01:53:33;100399.09;;;18.28;60.48
80945;BME280;70400;50.934;11.590;2023-07-09T01:54:30;100401.94;;;18.26;60.66
80945;BME280;70400;50.934;11.590;2023-07-09T01:55:22;100397.63;;;18.25;60.75
80945;BME280;70400;50.934;11.590;2023-07-09T01:56:13;100401.09;;;18.26;60.10
80945;BME280;70400;50.934;11.590;2023-07-09T01:57:33;100397.53;;;18.33;60.58
80945;BME280;70400;50.934;11.590;2023-07-09T01:58:24;100394.75;;;18.27;60.20
80945;BME280;70400;50.934;11.590;2023-07-09T01:59:15;100400.03;;;18.35;60.45
80945;BME280;70400;50.934;11.590;2023-07-09T02:00:12;100396.69;;;18.33;60.47
80945;BME280;70400;50.934;11.590;2023-07-09T02:01:06;100396.69;;;18.33;60.49
80945;BME280;70400;50.934;11.590;2023-07-09T02:01:57;100404.44;;;18.28;60.07
80945;BME280;70400;50.934;11.590;2023-07-09T02:02:48;100400.56;;;18.30;60.58
80945;BME280;70400;50.934;11.590;2023-07-09T02:03:39;100398.53;;;18.32;60.50
80945;BME280;70400;50.934;11.590;2023-07-09T02:04:33;100404.06;;;18.31;60.50
80945;BME280;70400;50.934;11.590;2023-07-09T02:05:23;100398.06;;;18.29;60.38
80945;BME280;70400;50.934;11.590;2023-07-09T02:06:15;100400.66;;;18.22;60.86
80945;BME280;70400;50.934;11.590;2023-07-09T02:07:10;100398.97;;;18.21;59.87
80945;BME280;70400;50.934;11.590;2023-07-09T02:08:02;100389.31;;;18.20;60.50
80945;BME280;70400;50.934;11.590;2023-07-09T02:08:54;100401.94;;;18.26;61.00
80945;BME280;70400;50.934;11.590;2023-07-09T02:09:45;100397.78;;;18.23;61.00
80945;BME280;70400;50.934;11.590;2023-07-09T02:10:36;100399.81;;;18.21;60.52
80945;BME280;70400;50.934;11.590;2023-07-09T02:11:27;100398.00;;;18.22;60.16
80945;BME280;70400;50.934;11.590;2023-07-09T02:12:18;100394.00;;;18.18;60.87
80945;BME280;70400;50.934;11.590;2023-07-09T02:13:10;100389.22;;;18.28;60.87
80945;BME280;70400;50.934;11.590;2023-07-09T02:14:01;100391.63;;;18.23;60.80
80945;BME280;70400;50.934;11.590;2023-07-09T02:14:52;100395.22;;;18.15;61.14
80945;BME280;70400;50.934;11.590;2023-07-09T02:15:43;100397.78;;;18.23;60.58
80945;BME280;70400;50.934;11.590;2023-07-09T02:16:34;100397.22;;;18.13;61.26
80945;BME280;70400;50.934;11.590;2023-07-09T02:17:25;100387.47;;;18.20;61.21
80945;BME280;70400;50.934;11.590;2023-07-09T02:18:16;100387.94;;;18.24;60.79
80945;BME280;70400;50.934;11.590;2023-07-09T02:19:07;100391.78;;;18.21;61.18
80945;BME280;70400;50.934;11.590;2023-07-09T02:19:58;100396.84;;;18.16;61.22
80945;BME280;70400;50.934;11.590;2023-07-09T02:20:49;100394.66;;;18.20;60.77
80945;BME280;70400;50.934;11.590;2023-07-09T02:21:40;100397.50;;;18.18;60.94
80945;BME280;70400;50.934;11.590;2023-07-09T02:22:31;100400.25;;;18.10;61.04
80945;BME280;70400;50.934;11.590;2023-07-09T02:23:26;100399.53;;;18.02;60.83
80945;BME280;70400;50.934;11.590;2023-07-09T02:24:18;100406.22;;;17.97;61.38
80945;BME280;70400;50.934;11.590;2023-07-09T02:25:09;100398.34;;;18.04;61.31
80945;BME280;70400;50.934;11.590;2023-07-09T02:25:59;100401.63;;;17.91;61.51
80945;BME280;70400;50.934;11.590;2023-07-09T02:26:51;100397.28;;;17.90;61.74
80945;BME280;70400;50.934;11.590;2023-07-09T02:27:42;100399.88;;;17.98;61.75
80945;BME280;70400;50.934;11.590;2023-07-09T02:28:32;100403.84;;;18.03;61.99
80945;BME280;70400;50.934;11.590;2023-07-09T02:29:24;100399.59;;;18.08;61.54
80945;BME280;70400;50.934;11.590;2023-07-09T02:30:15;100403.69;;;18.04;60.87
80945;BME280;70400;50.934;11.590;2023-07-09T02:31:06;100399.97;;;18.05;61.56
80945;BME280;70400;50.934;11.590;2023-07-09T02:31:58;100398.50;;;18.03;61.59
80945;BME280;70400;50.934;11.590;2023-07-09T02:32:49;100404.38;;;17.98;61.33
80945;BME280;70400;50.934;11.590;2023-07-09T02:33:40;100402.44;;;17.92;61.19
80945;BME280;70400;50.934;11.590;2023-07-09T02:34:31;100399.94;;;17.90;61.67
80945;BME280;70400;50.934;11.590;2023-07-09T02:35:22;100402.06;;;17.95;61.40
80945;BME280;70400;50.934;11.590;2023-07-09T02:36:13;100403.94;;;17.94;61.76
80945;BME280;70400;50.934;11.590;2023-07-09T02:37:04;100399.94;;;17.90;61.73
80945;BME280;70400;50.934;11.590;2023-07-09T02:37:55;100403.50;;;17.83;61.48
80945;BME280;70400;50.934;11.590;2023-07-09T02:38:46;100398.66;;;17.86;61.86
80945;BME280;70400;50.934;11.590;2023-07-09T02:39:37;100401.06;;;17.81;61.72
80945;BME280;70400;50.934;11.590;2023-07-09T02:40:28;100406.47;;;17.88;61.69
80945;BME280;70400;50.934;11.590;2023-07-09T02:41:19;100406.75;;;17.93;61.61
80945;BME280;70400;50.934;11.590;2023-07-09T02:42:12;100405.94;;;17.92;61.44
80945;BME280;70400;50.934;11.590;2023-07-09T02:43:03;100405.13;;;17.92;61.52
80945;BME280;70400;50.934;11.590;2023-07-09T02:43:54;100411.09;;;17.94;61.19
80945;BME280;70400;50.934;11.590;2023-07-09T02:44:45;100406.00;;;17.84;61.12
80945;BME280;70400;50.934;11.590;2023-07-09T02:45:36;100405.69;;;17.79;61.48
80945;BME280;70400;50.934;11.590;2023-07-09T02:46:27;100405.22;;;17.75;61.65
80945;BME280;70400;50.934;11.590;2023-07-09T02:47:18;100410.38;;;17.77;61.52
80945;BME280;70400;50.934;11.590;2023-07-09T02:48:11;100402.09;;;17.72;61.92
80945;BME280;70400;50.934;11.590;2023-07-09T02:49:04;100409.13;;;17.65;61.88
80945;BME280;70400;50.934;11.590;2023-07-09T02:49:56;100411.72;;;17.73;61.99
80945;BME280;70400;50.934;11.590;2023-07-09T02:50:47;100416.06;;;17.74;61.93
80945;BME280;70400;50.934;11.590;2023-07-09T02:51:38;100419.72;;;17.73;61.68
80945;BME280;70400;50.934;11.590;2023-07-09T02:52:29;100405.53;;;17.57;62.27
80945;BME280;70400;50.934;11.590;2023-07-09T02:53:21;100409.03;;;17.58;62.18
80945;BME280;70400;50.934;11.590;2023-07-09T02:54:12;100411.75;;;17.50;62.15
80945;BME280;70400;50.934;11.590;2023-07-09T02:55:03;100410.56;;;17.52;62.22
80945;BME280;70400;50.934;11.590;2023-07-09T02:55:54;100408.53;;;17.54;62.00
80945;BME280;70400;50.934;11.590;2023-07-09T02:56:44;100410.03;;;17.57;62.53
80945;BME280;70400;50.934;11.590;2023-07-09T02:57:35;100411.34;;;17.61;62.55
80945;BME280;70400;50.934;11.590;2023-07-09T02:58:26;100411.88;;;17.56;62.49
80945;BME280;70400;50.934;11.590;2023-07-09T02:59:17;100408.19;;;17.57;62.24
80945;BME280;70400;50.934;11.590;2023-07-09T03:00:08;100415.19;;;17.58;62.50
80945;BME280;70400;50.934;11.590;2023-07-09T03:00:59;100419.63;;;17.66;62.53
80945;BME280;70400;50.934;11.590;2023-07-09T03:01:50;100408.38;;;17.56;62.46
80945;BME280;70400;50.934;11.590;2023-07-09T03:02:40;100411.88;;;17.56;62.52
80945;BME280;70400;50.934;11.590;2023-07-09T03:03:31;100416.47;;;17.63;62.52
80945;BME280;70400;50.934;11.590;2023-07-09T03:04:23;100412.16;;;17.62;62.74
80945;BME280;70400;50.934;11.590;2023-07-09T03:05:14;100418.53;;;17.61;62.59
80945;BME280;70400;50.934;11.590;2023-07-09T03:06:06;100416.19;;;17.57;62.15
80945;BME280;70400;50.934;11.590;2023-07-09T03:06:57;100414.38;;;17.58;62.84
80945;BME280;70400;50.934;11.590;2023-07-09T03:07:47;100422.06;;;17.53;62.82
80945;BME280;70400;50.934;11.590;2023-07-09T03:08:38;100419.06;;;17.56;62.45
80945;BME280;70400;50.934;11.590;2023-07-09T03:09:29;100418.09;;;17.49;62.91
80945;BME280;70400;50.934;11.590;2023-07-09T03:10:20;100420.75;;;17.49;63.15
80945;BME280;70400;50.934;11.590;2023-07-09T03:11:12;100419.56;;;17.51;63.25
80945;BME280;70400;50.934;11.590;2023-07-09T03:12:04;100419.13;;;17.48;63.37
80945;BME280;70400;50.934;11.590;2023-07-09T03:12:55;100419.13;;;17.48;63.34
80945;BME280;70400;50.934;11.590;2023-07-09T03:13:47;100420.81;;;17.41;63.82
80945;BME280;70400;50.934;11.590;2023-07-09T03:14:37;100414.31;;;17.43;63.87
80945;BME280;70400;50.934;11.590;2023-07-09T03:15:30;100421.22;;;17.29;63.96
80945;BME280;70400;50.934;11.590;2023-07-09T03:16:21;100415.34;;;17.34;64.18
80945;BME280;70400;50.934;11.590;2023-07-09T03:17:12;100422.69;;;17.32;64.33
80945;BME280;70400;50.934;11.590;2023-07-09T03:18:03;100428.31;;;17.37;63.87
80945;BME280;70400;50.934;11.590;2023-07-09T03:18:54;100424.31;;;17.41;63.50
80945;BME280;70400;50.934;11.590;2023-07-09T03:19:46;100432.47;;;17.40;64.24
80945;BME280;70400;50.934;11.590;2023-07-09T03:20:37;100425.59;;;17.45;63.70
80945;BME280;70400;50.934;11.590;2023-07-09T03:21:29;100427.28;;;17.46;63.80
80945;BME280;70400;50.934;11.590;2023-07-09T03:22:20;100420.28;;;17.45;63.54
80945;BME280;70400;50.934;11.590;2023-07-09T03:23:11;100421.81;;;17.40;63.67
80945;BME280;70400;50.934;11.590;2023-07-09T03:24:02;100424.97;;;17.43;63.36
80945;BME280;70400;50.934;11.590;2023-07-09T03:24:53;100421.81;;;17.40;63.36
80945;BME280;70400;50.934;11.590;2023-07-09T03:25:45;100426.09;;;17.49;63.69
80945;BME280;70400;50.934;11.590;2023-07-09T03:26:35;100423.50;;;17.41;63.61
80945;BME280;70400;50.934;11.590;2023-07-09T03:27:26;100423.66;;;17.39;63.97
80945;BME280;70400;50.934;11.590;2023-07-09T03:28:17;100431.19;;;17.35;63.86
80945;BME280;70400;50.934;11.590;2023-07-09T03:29:08;100425.59;;;17.45;63.47
80945;BME280;70400;50.934;11.590;2023-07-09T03:30:01;100431.13;;;17.44;63.58
80945;BME280;70400;50.934;11.590;2023-07-09T03:30:54;100425.94;;;17.50;63.50
80945;BME280;70400;50.934;11.590;2023-07-09T03:31:46;100427.28;;;17.46;63.76
80945;BME280;70400;50.934;11.590;2023-07-09T03:32:37;100431.44;;;17.49;63.58
80945;BME280;70400;50.934;11.590;2023-07-09T03:33:30;100428.94;;;17.47;63.12
80945;BME280;70400;50.934;11.590;2023-07-09T03:34:21;100423.78;;;17.46;63.26
80945;BME280;70400;50.934;11.590;2023-07-09T03:35:12;100420.81;;;17.41;62.81
80945;BME280;70400;50.934;11.590;2023-07-09T03:36:03;100429.28;;;17.44;63.15
80945;BME280;70400;50.934;11.590;2023-07-09T03:36:55;100431.06;;;17.52;63.24
80945;BME280;70400;50.934;11.590;2023-07-09T03:37:46;100420.91;;;17.55;62.75
80945;BME280;70400;50.934;11.590;2023-07-09T03:38:37;100430.38;;;17.58;62.68
80945;BME280;70400;50.934;11.590;2023-07-09T03:39:28;100430.47;;;17.65;62.54
80945;BME280;70400;50.934;11.590;2023-07-09T03:40:22;100424.09;;;17.74;62.37
80945;BME280;70400;50.934;11.590;2023-07-09T03:41:14;100432.75;;;17.99;61.56
80945;BME280;70400;50.934;11.590;2023-07-09T03:42:05;100428.88;;;18.16;61.01
80945;BME280;70400;50.934;11.590;2023-07-09T03:42:56;100432.22;;;18.33;60.52
80945;BME280;70400;50.934;11.590;2023-07-09T03:43:47;100431.69;;;18.53;59.65
80945;BME280;70400;50.934;11.590;2023-07-09T03:44:40;100427.94;;;18.77;58.93
80945;BME280;70400;50.934;11.590;2023-07-09T03:45:32;100416.69;;;18.96;57.77
80945;BME280;70400;50.934;11.590;2023-07-09T03:46:23;100426.44;;;19.04;57.76
80945;BME280;70400;50.934;11.590;2023-07-09T03:47:14;100422.34;;;19.08;57.80
80945;BME280;70400;50.934;11.590;2023-07-09T03:48:05;100420.38;;;19.32;56.71
80945;BME280;70400;50.934;11.590;2023-07-09T03:48:58;100420.31;;;19.46;56.42
80945;BME280;70400;50.934;11.590;2023-07-09T03:49:49;100423.50;;;19.78;55.48
80945;BME280;70400;50.934;11.590;2023-07-09T03:50:42;100423.16;;;19.66;55.58
80945;BME280;70400;50.934;11.590;2023-07-09T03:51:34;100431.47;;;19.93;54.73
80945;BME280;70400;50.934;11.590;2023-07-09T03:52:25;100428.88;;;20.06;54.48
80945;BME280;70400;50.934;11.590;2023-07-09T03:53:16;100423.94;;;20.31;53.56
80945;BME280;70400;50.934;11.590;2023-07-09T03:54:07;100422.75;;;20.41;53.20
80945;BME280;70400;50.934;11.590;2023-07-09T03:54:58;100428.53;;;20.44;53.22
80945;BME280;70400;50.934;11.590;2023-07-09T03:55:53;100425.56;;;20.60;52.52
80945;BME280;70400;50.934;11.590;2023-07-09T03:56:44;100422.13;;;20.73;52.48
80945;BME280;70400;50.934;11.590;2023-07-09T03:57:36;100421.06;;;20.68;52.39
80945;BME280;70400;50.934;11.590;2023-07-09T03:58:27;100424.56;;;20.62;52.42
80945;BME280;70400;50.934;11.590;2023-07-09T03:59:18;100424.31;;;20.56;52.74
80945;BME280;70400;50.934;11.590;2023-07-09T04:00:09;100425.88;;;20.79;52.04
80945;BME280;70400;50.934;11.590;2023-07-09T04:01:06;100424.34;;;21.11;51.18
80945;BME280;70400;50.934;11.590;2023-07-09T04:01:57;100421.47;;;21.13;50.99
80945;BME280;70400;50.934;11.590;2023-07-09T04:02:48;100421.09;;;21.36;50.34
80945;BME280;70400;50.934;11.590;2023-07-09T04:03:39;100421.56;;;21.46;50.07
80945;BME280;70400;50.934;11.590;2023-07-09T04:04:29;100416.84;;;21.48;49.81
80945;BME280;70400;50.934;11.590;2023-07-09T04:05:20;100418.50;;;21.69;49.78
80945;BME280;70400;50.934;11.590;2023-07-09T04:06:11;100418.28;;;22.10;48.22
80945;BME280;70400;50.934;11.590;2023-07-09T04:07:02;100419.97;;;22.25;47.82
80945;BME280;70400;50.934;11.590;2023-07-09T04:07:53;100425.94;;;22.40;47.88
80945;BME280;70400;50.934;11.590;2023-07-09T04:08:44;100423.25;;;22.40;47.40
80945;BME280;70400;50.934;11.590;2023-07-09T04:09:35;100430.03;;;22.56;46.76
80945;BME280;70400;50.934;11.590;2023-07-09T04:10:26;100424.16;;;22.79;46.84
80945;BME280;70400;50.934;11.590;2023-07-09T04:11:17;100421.41;;;22.99;45.85
80945;BME280;70400;50.934;11.590;2023-07-09T04:12:09;100424.72;;;22.94;45.97
80945;BME280;70400;50.934;11.590;2023-07-09T04:13:00;100422.22;;;23.06;45.45
80945;BME280;70400;50.934;11.590;2023-07-09T04:13:51;100423.03;;;23.45;44.90
80945;BME280;70400;50.934;11.590;2023-07-09T04:14:41;100417.75;;;23.64;43.96
80945;BME280;70400;50.934;11.590;2023-07-09T04:15:32;100422.50;;;23.93;43.62
80945;BME280;70400;50.934;11.590;2023-07-09T04:16:23;100419.84;;;24.12;42.96
80945;BME280;70400;50.934;11.590;2023-07-09T04:17:14;100418.47;;;24.02;43.29
80945;BME280;70400;50.934;11.590;2023-07-09T04:18:05;100415.13;;;23.82;43.46
80945;BME280;70400;50.934;11.590;2023-07-09T04:18:56;100419.78;;;23.93;43.22
80945;BME280;70400;50.934;11.590;2023-07-09T04:19:47;100422.78;;;23.85;43.28
80945;BME280;70400;50.934;11.590;2023-07-09T04:20:38;100424.56;;;23.91;43.07
80945;BME280;70400;50.934;11.590;2023-07-09T04:21:29;100428.16;;;23.85;43.44
80945;BME280;70400;50.934;11.590;2023-07-09T04:22:19;100426.56;;;23.71;43.63
80945;BME280;70400;50.934;11.590;2023-07-09T04:23:11;100427.94;;;23.87;43.59
80945;BME280;70400;50.934;11.590;2023-07-09T04:24:03;100425.34;;;24.23;42.67
80945;BME280;70400;50.934;11.590;2023-07-09T04:24:54;100424.56;;;24.16;42.75
80945;BME280;70400;50.934;11.590;2023-07-09T04:25:45;100419.47;;;24.52;42.06
80945;BME280;70400;50.934;11.590;2023-07-09T04:26:36;100422.63;;;24.23;42.52
80945;BME280;70400;50.934;11.590;2023-07-09T04:27:30;100429.59;;;24.56;41.97
80945;BME280;70400;50.934;11.590;2023-07-09T04:28:21;100431.53;;;24.86;41.41
80945;BME280;70400;50.934;11.590;2023-07-09T04:29:12;100428.88;;;25.16;40.40
80945;BME280;70400;50.934;11.590;2023-07-09T04:30:04;100426.84;;;25.30;40.15
80945;BME280;70400;50.934;11.590;2023-07-09T04:30:55;100432.16;;;25.18;40.28
80945;BME280;70400;50.934;11.590;2023-07-09T04:31:46;100431.22;;;25.43;39.94
80945;BME280;70400;50.934;11.590;2023-07-09T04:32:37;100431.13;;;25.49;39.68
80945;BME280;70400;50.934;11.590;2023-07-09T04:33:28;100421.44;;;25.30;39.32